Time;durP1;ratioP1;P1;durP2;ratioP2;P2;SDS_P1;SDS_P2;PMS_P1;PMS_P2;Temp;Humidity;BMP_temperature;BMP_pressure;BME280_temperature;BME280_humidity;BME280_pressure;Samples;Min_cycle;Max_cycle;Signal;HPM_P1;HPM_P2
2021/10/23 00:01:09;;;;;;;;;;;;;;;6.07;55.07;98611.47;5013908;28;19921;-79
2021/10/23 00:03:35;;;;;;;;;;;;;;;6.08;55.56;98604.56;5012613;28;20407;-76
2021/10/23 00:06:01;;;;;;;;;;;;;;;6.09;55.55;98599.41;5012362;28;20397;-78
2021/10/23 00:08:26;;;;;;;;;;;;;;;6.10;55.72;98600.25;5013790;28;19975;-78
2021/10/23 00:10:52;;;;;;;;;;;;;;;6.10;55.83;98601.13;5014293;28;20381;-76
2021/10/23 00:13:18;;;;;;;;;;;;;;;6.10;55.08;98602.84;5015323;28;19943;-76
2021/10/23 00:15:43;;;;;;;;;;;;;;;6.10;55.81;98600.25;5014095;28;19951;-78
2021/10/23 00:18:09;;;;;;;;;;;;;;;6.13;55.86;98610.56;5021146;28;19921;-77
2021/10/23 00:20:34;;;;;;;;;;;;;;;6.15;55.71;98609.69;5018305;28;19928;-75
2021/10/23 00:23:00;;;;;;;;;;;;;;;6.20;55.59;98609.63;5012222;28;20344;-77
2021/10/23 00:25:25;;;;;;;;;;;;;;;6.25;55.41;98609.56;5013325;28;20160;-76
2021/10/23 00:27:54;;;;;;;;;;;;;;;6.28;55.29;98602.66;4996366;28;20087;-76
2021/10/23 00:30:21;;;;;;;;;;;;;;;6.33;55.36;98608.63;5013045;28;20468;-76
2021/10/23 00:32:46;;;;;;;;;;;;;;;6.35;54.89;98610.34;5013119;28;19979;-77
2021/10/23 00:35:12;;;;;;;;;;;;;;;6.36;55.79;98606.88;5011642;28;20013;-76
2021/10/23 00:37:37;;;;;;;;;;;;;;;6.39;55.61;98607.72;5013213;28;19967;-78
2021/10/23 00:40:03;;;;;;;;;;;;;;;6.41;55.60;98599.94;5012809;28;20032;-77
2021/10/23 00:42:29;;;;;;;;;;;;;;;6.45;55.22;98596.44;5012486;28;19921;-77
2021/10/23 00:44:55;;;;;;;;;;;;;;;6.48;55.30;98596.44;4979402;28;19932;-78
2021/10/23 00:47:20;;;;;;;;;;;;;;;6.51;55.35;98601.53;5012861;28;19953;-78
2021/10/23 00:49:47;;;;;;;;;;;;;;;6.56;55.15;98593.75;5013212;28;20376;-76
2021/10/23 00:52:12;;;;;;;;;;;;;;;6.61;54.99;98597.97;5012355;28;19922;-76
2021/10/23 00:54:39;;;;;;;;;;;;;;;6.62;55.10;98598.84;5012385;28;19941;-77
2021/10/23 00:57:05;;;;;;;;;;;;;;;6.62;55.25;98604.03;5012666;28;20013;-77
2021/10/23 00:59:31;;;;;;;;;;;;;;;6.61;55.24;98604.91;4994781;28;20294;-77
2021/10/23 01:01:57;;;;;;;;;;;;;;;6.62;55.09;98610.03;5012997;28;19925;-76
2021/10/23 01:04:23;;;;;;;;;;;;;;;6.65;54.81;98592.78;5012951;28;19921;-77
2021/10/23 01:06:49;;;;;;;;;;;;;;;6.68;55.16;98603.94;5012917;28;19972;-77
2021/10/23 01:09:15;;;;;;;;;;;;;;;6.70;54.95;98611.69;5011268;28;19959;-76
2021/10/23 01:11:41;;;;;;;;;;;;;;;6.69;55.56;98612.56;5010641;28;20431;-77
2021/10/23 01:14:23;;;;;;;;;;;;;;;6.69;54.81;98603.06;5010558;28;19921;-76
2021/10/23 01:16:50;;;;;;;;;;;;;;;6.69;54.88;98607.38;5011134;28;19928;-77
2021/10/23 01:19:16;;;;;;;;;;;;;;;6.69;54.92;98615.13;4994324;28;20392;-76
2021/10/23 01:21:43;;;;;;;;;;;;;;;6.69;55.40;98610.81;5010956;28;20417;-76
2021/10/23 01:24:09;;;;;;;;;;;;;;;6.69;55.46;98618.56;5010955;28;19926;-77
2021/10/23 01:26:35;;;;;;;;;;;;;;;6.68;54.84;98609.09;5012970;28;19921;-75
2021/10/23 01:29:02;;;;;;;;;;;;;;;6.68;55.08;98618.59;5029204;28;19940;-76
2021/10/23 01:31:28;;;;;;;;;;;;;;;6.68;55.44;98618.59;5027878;28;19984;-76
2021/10/23 01:33:54;;;;;;;;;;;;;;;6.66;55.16;98615.16;5011955;28;20405;-77
2021/10/23 01:36:20;;;;;;;;;;;;;;;6.65;55.54;98611.72;5013080;28;19921;-76
2021/10/23 01:38:46;;;;;;;;;;;;;;;6.68;55.21;98616.00;5012172;28;19923;-76
2021/10/23 01:41:12;;;;;;;;;;;;;;;6.70;54.89;98614.25;5014953;28;19921;-77
2021/10/23 01:43:38;;;;;;;;;;;;;;;6.70;55.42;98615.09;4980841;28;20420;-78
2021/10/23 01:46:04;;;;;;;;;;;;;;;6.71;55.20;98605.63;5011326;28;19922;-77
2021/10/23 01:48:32;;;;;;;;;;;;;;;6.71;55.55;98609.06;4994458;28;19932;-77
2021/10/23 01:50:58;;;;;;;;;;;;;;;6.73;55.10;98604.72;5012021;28;19921;-78
2021/10/23 01:53:24;;;;;;;;;;;;;;;6.73;54.99;98607.31;5012397;28;19921;-79
2021/10/23 01:55:51;;;;;;;;;;;;;;;6.73;55.18;98611.66;5010376;28;19968;-76
2021/10/23 01:58:17;;;;;;;;;;;;;;;6.75;55.46;98602.97;5011146;28;19928;-77
2021/10/23 02:00:42;;;;;;;;;;;;;;;6.79;55.31;98593.44;5010673;28;19921;-75
2021/10/23 02:03:08;;;;;;;;;;;;;;;6.79;55.10;98603.78;4994352;28;20435;-77
2021/10/23 02:05:33;;;;;;;;;;;;;;;6.80;55.05;98604.66;5010011;28;20381;-76
2021/10/23 02:07:59;;;;;;;;;;;;;;;6.84;55.02;98609.75;5010313;28;19925;-75
2021/10/23 02:10:24;;;;;;;;;;;;;;;6.86;54.95;98602.84;5010030;28;19921;-75
2021/10/23 02:12:50;;;;;;;;;;;;;;;6.87;55.04;98608.84;4993501;28;20416;-77
2021/10/23 02:15:15;;;;;;;;;;;;;;;6.90;55.16;98611.41;5009398;28;20008;-78
2021/10/23 02:17:41;;;;;;;;;;;;;;;6.95;55.25;98613.97;5011179;28;19925;-75
2021/10/23 02:20:08;;;;;;;;;;;;;;;6.96;55.28;98608.75;5010306;28;19922;-76
2021/10/23 02:22:34;;;;;;;;;;;;;;;6.98;55.08;98613.91;5010340;28;20432;-76
2021/10/23 02:24:59;;;;;;;;;;;;;;;6.96;55.16;98616.50;5011514;28;19948;-76
2021/10/23 02:27:26;;;;;;;;;;;;;;;7.00;55.09;98609.56;5011382;28;19925;-75
2021/10/23 02:29:51;;;;;;;;;;;;;;;7.00;55.18;98619.91;5011309;28;19928;-75
2021/10/23 02:32:17;;;;;;;;;;;;;;;7.00;54.69;98614.72;5011175;28;19928;-76
2021/10/23 02:34:43;;;;;;;;;;;;;;;7.02;54.89;98615.56;5010093;28;20031;-76
2021/10/23 02:37:09;;;;;;;;;;;;;;;7.04;54.89;98612.09;5010364;28;19922;-76
2021/10/23 02:39:35;;;;;;;;;;;;;;;7.08;55.00;98612.91;5009579;28;20424;-76
2021/10/23 02:42:00;;;;;;;;;;;;;;;7.13;55.16;98620.59;5009440;28;19968;-76
2021/10/23 02:44:26;;;;;;;;;;;;;;;7.16;55.05;98605.91;5009701;28;20467;-76
2021/10/23 02:46:51;;;;;;;;;;;;;;;7.17;54.83;98607.59;5010921;28;20381;-76
2021/10/23 02:49:17;;;;;;;;;;;;;;;7.18;54.77;98608.47;5009411;28;19934;-76
2021/10/23 02:51:44;;;;;;;;;;;;;;;7.19;54.83;98610.19;5009364;28;20334;-76
2021/10/23 02:54:09;;;;;;;;;;;;;;;7.17;54.98;98602.41;5009702;28;19921;-76
2021/10/23 02:56:35;;;;;;;;;;;;;;;7.19;54.74;98608.44;5010726;28;19929;-76
2021/10/23 02:59:00;;;;;;;;;;;;;;;7.21;54.93;98606.69;5010579;28;19964;-75
2021/10/23 03:01:27;;;;;;;;;;;;;;;7.20;55.02;98614.47;5010822;28;19925;-74
2021/10/23 03:03:53;;;;;;;;;;;;;;;7.21;54.96;98618.78;5011538;28;20263;-76
2021/10/23 03:06:19;;;;;;;;;;;;;;;7.20;55.08;98612.72;5018780;28;19929;-77
2021/10/23 03:08:45;;;;;;;;;;;;;;;7.21;55.03;98618.78;5014166;28;19925;-75
2021/10/23 03:11:11;;;;;;;;;;;;;;;7.18;54.75;98614.47;5013813;28;19929;-75
2021/10/23 03:13:39;;;;;;;;;;;;;;;7.16;54.58;98613.66;5010998;28;20033;-76
2021/10/23 03:16:04;;;;;;;;;;;;;;;7.15;54.62;98619.72;5010072;28;19969;-77
2021/10/23 03:18:30;;;;;;;;;;;;;;;7.15;54.87;98618.84;4979776;28;19925;-78
2021/10/23 03:20:55;;;;;;;;;;;;;;;7.17;54.77;98627.44;5010903;28;19921;-78
2021/10/23 03:23:21;;;;;;;;;;;;;;;7.18;55.26;98619.66;5013008;28;19972;-76
2021/10/23 03:25:46;;;;;;;;;;;;;;;7.18;54.84;98617.06;5014313;28;19933;-75
2021/10/23 03:28:12;;;;;;;;;;;;;;;7.17;55.09;98623.13;5012826;28;20033;-75
2021/10/23 03:30:38;;;;;;;;;;;;;;;7.21;54.97;98623.94;5014154;28;20024;-77
2021/10/23 03:33:04;;;;;;;;;;;;;;;7.21;55.01;98623.94;5013388;28;19968;-76
2021/10/23 03:35:29;;;;;;;;;;;;;;;7.20;55.07;98623.06;5020400;28;19921;-77
2021/10/23 03:37:55;;;;;;;;;;;;;;;7.17;55.01;98617.94;5038749;28;19930;-78
2021/10/23 03:40:20;;;;;;;;;;;;;;;7.15;54.96;98619.72;5028170;28;20374;-77
2021/10/23 03:42:46;;;;;;;;;;;;;;;7.13;54.73;98620.59;5016664;28;19918;-78
2021/10/23 03:45:13;;;;;;;;;;;;;;;7.14;55.13;98630.06;5013627;28;19940;-75
2021/10/23 03:47:38;;;;;;;;;;;;;;;7.12;54.82;98619.75;5014834;28;20300;-76
2021/10/23 03:50:04;;;;;;;;;;;;;;;7.12;55.07;98626.66;5013062;28;19921;-77
2021/10/23 03:52:30;;;;;;;;;;;;;;;7.07;55.02;98626.72;5015425;28;19964;-76
2021/10/23 03:54:56;;;;;;;;;;;;;;;7.06;55.08;98625.00;5014516;28;19922;-76
2021/10/23 03:57:21;;;;;;;;;;;;;;;7.03;54.75;98630.22;4983217;28;20381;-76
2021/10/23 03:59:47;;;;;;;;;;;;;;;6.98;54.71;98634.59;5014811;28;19921;-76
2021/10/23 04:02:13;;;;;;;;;;;;;;;6.88;54.78;98632.13;5012854;28;19921;-75
2021/10/23 04:04:38;;;;;;;;;;;;;;;6.82;55.37;98631.34;5014426;28;20018;-75
2021/10/23 04:07:04;;;;;;;;;;;;;;;6.75;54.91;98638.31;5017796;28;20060;-77
2021/10/23 04:09:31;;;;;;;;;;;;;;;6.71;55.64;98632.34;5012243;28;20456;-77
2021/10/23 04:11:57;;;;;;;;;;;;;;;6.71;55.05;98634.06;5011934;28;20375;-76
2021/10/23 04:14:23;;;;;;;;;;;;;;;6.72;55.50;98640.97;5014828;28;19921;-76
2021/10/23 04:16:48;;;;;;;;;;;;;;;6.69;55.27;98643.56;5012935;28;19925;-75
2021/10/23 04:19:14;;;;;;;;;;;;;;;6.68;55.33;98650.47;5011230;28;19921;-77
2021/10/23 04:21:39;;;;;;;;;;;;;;;6.71;55.69;98639.25;5013279;28;19921;-76
2021/10/23 04:24:05;;;;;;;;;;;;;;;6.72;55.62;98643.53;5013049;28;19925;-75
2021/10/23 04:26:31;;;;;;;;;;;;;;;6.76;55.63;98652.94;5014667;28;19925;-75
2021/10/23 04:28:58;;;;;;;;;;;;;;;6.76;55.32;98642.59;5018270;28;20257;-77
2021/10/23 04:31:23;;;;;;;;;;;;;;;6.78;56.08;98651.22;5017305;28;19921;-77
2021/10/23 04:33:49;;;;;;;;;;;;;;;6.83;55.38;98656.34;5013702;28;19929;-75
2021/10/23 04:36:14;;;;;;;;;;;;;;;6.84;55.45;98660.66;5011718;28;19921;-77
2021/10/23 04:38:40;;;;;;;;;;;;;;;6.85;55.90;98668.38;5013089;28;19922;-77
2021/10/23 04:41:06;;;;;;;;;;;;;;;6.90;55.72;98666.59;5012615;28;19921;-76
2021/10/23 04:43:31;;;;;;;;;;;;;;;6.93;55.70;98661.38;5011025;28;19921;-76
2021/10/23 04:45:57;;;;;;;;;;;;;;;6.97;55.64;98651.84;5013518;28;19921;-77
2021/10/23 04:48:22;;;;;;;;;;;;;;;6.98;55.80;98663.03;5012482;28;20035;-78
2021/10/23 04:50:48;;;;;;;;;;;;;;;7.24;55.90;98653.22;5010790;28;19925;-74
2021/10/23 04:53:13;;;;;;;;;;;;;;;7.37;55.53;98660.81;5011330;28;19929;-78
2021/10/23 04:55:39;;;;;;;;;;;;;;;7.36;55.60;98662.53;5012075;28;19921;-75
2021/10/23 04:58:04;;;;;;;;;;;;;;;7.51;55.65;98661.47;5011558;28;19922;-77
2021/10/23 05:00:30;;;;;;;;;;;;;;;7.62;55.74;98663.03;5013838;28;19921;-75
2021/10/23 05:02:55;;;;;;;;;;;;;;;7.63;55.44;98660.44;5013230;28;19921;-80
2021/10/23 05:05:21;;;;;;;;;;;;;;;7.62;55.33;98671.66;5013476;28;19932;-74
2021/10/23 05:07:47;;;;;;;;;;;;;;;7.65;55.47;98660.41;5011767;28;19925;-77
2021/10/23 05:10:15;;;;;;;;;;;;;;;7.80;55.61;98665.38;5013070;28;19964;-77
2021/10/23 05:12:41;;;;;;;;;;;;;;;7.99;55.26;98671.09;5013218;28;19921;-76
2021/10/23 05:15:07;;;;;;;;;;;;;;;8.57;54.89;98670.13;5011530;28;19922;-74
2021/10/23 05:17:34;;;;;;;;;;;;;;;8.91;54.71;98672.09;5011354;28;20373;-75
2021/10/23 05:20:00;;;;;;;;;;;;;;;9.04;54.00;98675.28;5012340;28;19971;-75
2021/10/23 05:22:25;;;;;;;;;;;;;;;8.84;53.77;98660.09;5011936;28;20039;-78
2021/10/23 05:24:51;;;;;;;;;;;;;;;8.71;53.44;98673.34;5010678;28;20023;-75
2021/10/23 05:27:16;;;;;;;;;;;;;;;8.83;53.66;98663.59;5011435;28;19922;-75
2021/10/23 05:29:45;;;;;;;;;;;;;;;8.94;53.72;98665.97;5015309;28;20067;-74
2021/10/23 05:32:34;;;;;;;;;;;;;;;9.98;53.58;98655.88;5014430;28;19960;-73
2021/10/23 05:35:21;;;;;;;;;;;;;;;11.74;51.59;98656.16;5012698;28;19921;-77
2021/10/23 05:37:48;;;;;;;;;;;;;;;12.92;49.93;98646.94;5012108;28;20301;-78
2021/10/23 05:40:14;;;;;;;;;;;;;;;14.03;48.48;98645.34;5013714;28;19943;-75
2021/10/23 05:42:39;;;;;;;;;;;;;;;14.96;47.56;98647.47;5013805;28;20017;-74
2021/10/23 05:45:05;;;;;;;;;;;;;;;15.78;45.65;98645.41;4991208;28;19922;-75
2021/10/23 05:47:31;;;;;;;;;;;;;;;16.50;44.57;98641.00;5020530;28;19921;-75
2021/10/23 05:49:56;;;;;;;;;;;;;;;17.08;42.69;98644.13;5012552;28;20376;-74
2021/10/23 05:52:22;;;;;;;;;;;;;;;17.70;42.35;98638.09;5017291;28;20025;-75
2021/10/23 05:54:47;;;;;;;;;;;;;;;18.29;41.70;98639.16;5013531;28;20008;-73
2021/10/23 05:57:13;;;;;;;;;;;;;;;18.82;40.68;98644.78;5015414;28;20490;-76
2021/10/23 05:59:43;;;;;;;;;;;;;;;18.95;39.29;98652.81;5017410;28;20015;-75
2021/10/23 06:04:48;;;;;;;;;;;;;;;18.94;38.83;98656.34;5011194;28;20420;-77
2021/10/23 06:07:15;;;;;;;;;;;;;;;19.20;38.15;98657.38;5011265;28;19925;-76
2021/10/23 06:09:41;;;;;;;;;;;;;;;19.79;37.12;98643.09;5011752;28;20023;-74
2021/10/23 06:12:06;;;;;;;;;;;;;;;20.59;37.96;98634.28;5010151;28;19953;-79
2021/10/23 06:14:32;;;;;;;;;;;;;;;21.18;35.77;98634.66;5012810;28;19979;-80
2021/10/23 06:16:57;;;;;;;;;;;;;;;21.35;35.22;98639.59;5010101;28;19921;-76
2021/10/23 06:19:23;;;;;;;;;;;;;;;21.58;35.35;98641.53;5012728;28;20362;-78
2021/10/23 06:21:48;;;;;;;;;;;;;;;21.89;34.55;98629.56;5015453;28;19952;-77
2021/10/23 06:24:14;;;;;;;;;;;;;;;20.24;35.56;98649.88;5013448;28;19933;-74
2021/10/23 06:26:40;;;;;;;;;;;;;;;18.73;36.43;98653.22;5014765;28;19922;-76
2021/10/23 06:29:08;;;;;;;;;;;;;;;17.46;37.29;98663.97;4995889;28;19980;-79
2021/10/23 06:31:39;;;;;;;;;;;;;;;16.23;38.17;98675.59;5011063;28;19929;-79
2021/10/23 06:34:08;;;;;;;;;;;;;;;15.70;39.49;98663.31;4978708;28;19921;-77
2021/10/23 06:36:34;;;;;;;;;;;;;;;17.44;39.24;98648.28;4996209;28;19921;-77
2021/10/23 06:39:03;;;;;;;;;;;;;;;19.00;37.42;98650.72;5011635;28;20020;-76
2021/10/23 06:41:35;;;;;;;;;;;;;;;19.07;35.42;98659.09;4978882;28;19928;-81
2021/10/23 06:44:07;;;;;;;;;;;;;;;18.29;35.69;98658.44;5011938;28;20384;-77
2021/10/23 06:46:39;;;;;;;;;;;;;;;17.22;36.42;98661.75;5012365;28;19933;-77
2021/10/23 06:49:08;;;;;;;;;;;;;;;16.40;37.17;98671.28;5010289;28;20024;-76
2021/10/23 06:51:34;;;;;;;;;;;;;;;15.63;38.37;98674.09;5011785;28;19921;-76
2021/10/23 06:54:07;;;;;;;;;;;;;;;15.01;38.81;98676.94;4979462;28;19929;-77
2021/10/23 06:56:33;;;;;;;;;;;;;;;14.60;38.75;98690.06;5010827;28;19925;-75
2021/10/23 06:58:58;;;;;;;;;;;;;;;13.99;39.13;98683.88;5014208;28;20436;-79
2021/10/23 07:01:24;;;;;;;;;;;;;;;13.49;39.92;98677.97;5014377;28;20378;-78
2021/10/23 07:03:50;;;;;;;;;;;;;;;13.32;40.08;98683.78;5013773;28;19922;-77
2021/10/23 07:06:16;;;;;;;;;;;;;;;13.48;40.84;98684.09;5014302;28;19922;-79
2021/10/23 07:08:54;;;;;;;;;;;;;;;13.74;40.13;98686.59;4982593;28;20359;-79
2021/10/23 07:11:53;;;;;;;;;;;;;;;13.58;39.90;98688.94;5016512;28;20019;-77
2021/10/23 07:14:26;;;;;;;;;;;;;;;13.31;40.02;98684.69;4994951;28;20040;-76
2021/10/23 07:16:51;;;;;;;;;;;;;;;12.98;40.22;98682.47;5021192;28;19925;-75
2021/10/23 07:19:17;;;;;;;;;;;;;;;12.51;40.45;98683.22;5019751;28;19968;-78
2021/10/23 07:21:43;;;;;;;;;;;;;;;12.13;40.92;98703.63;5014757;28;19929;-78
2021/10/23 07:24:08;;;;;;;;;;;;;;;11.82;41.73;98709.78;5013151;28;19925;-77
2021/10/23 07:26:35;;;;;;;;;;;;;;;11.50;41.63;98688.19;5013433;28;19922;-79
2021/10/23 07:29:02;;;;;;;;;;;;;;;11.15;42.01;98699.59;5014745;28;19926;-78
2021/10/23 07:31:27;;;;;;;;;;;;;;;10.88;42.22;98703.84;5013181;28;19975;-73
2021/10/23 07:33:53;;;;;;;;;;;;;;;10.65;43.03;98705.31;5013035;28;20023;-75
2021/10/23 07:36:22;;;;;;;;;;;;;;;10.60;43.81;98698.53;5013662;28;19921;-77
2021/10/23 07:38:51;;;;;;;;;;;;;;;10.60;43.40;98703.72;5013329;28;20451;-78
2021/10/23 07:41:21;;;;;;;;;;;;;;;10.61;43.62;98703.69;5012977;28;20496;-77
2021/10/23 07:43:50;;;;;;;;;;;;;;;10.58;43.60;98714.19;5013408;28;19921;-76
2021/10/23 07:46:16;;;;;;;;;;;;;;;10.48;44.17;98707.50;4996855;28;19944;-76
2021/10/23 07:48:42;;;;;;;;;;;;;;;10.25;44.14;98721.91;5015096;28;19926;-76
2021/10/23 07:51:08;;;;;;;;;;;;;;;10.16;44.84;98715.19;5016890;28;19928;-76
2021/10/23 07:53:34;;;;;;;;;;;;;;;10.12;44.77;98713.56;5023133;28;19961;-73
2021/10/23 07:56:13;;;;;;;;;;;;;;;10.04;44.66;98723.31;5020184;28;19921;-77
2021/10/23 07:58:38;;;;;;;;;;;;;;;9.92;45.02;98725.28;5013448;28;20381;-77
2021/10/23 08:01:04;;;;;;;;;;;;;;;9.78;45.27;98725.59;4996770;28;19921;-79
2021/10/23 08:03:30;;;;;;;;;;;;;;;9.70;44.97;98719.75;5012688;28;19928;-76
2021/10/23 08:05:55;;;;;;;;;;;;;;;9.64;45.41;98725.06;5013371;28;19921;-76
2021/10/23 08:08:21;;;;;;;;;;;;;;;9.51;46.09;98724.47;5012718;28;20320;-77
2021/10/23 08:10:46;;;;;;;;;;;;;;;9.50;46.21;98727.97;5011815;28;19943;-77
2021/10/23 08:13:12;;;;;;;;;;;;;;;9.57;46.08;98726.94;5011266;28;19928;-76
2021/10/23 08:15:40;;;;;;;;;;;;;;;9.65;45.88;98724.19;5011579;28;19921;-75
2021/10/23 08:18:06;;;;;;;;;;;;;;;9.70;46.20;98724.94;4995134;28;19921;-76
2021/10/23 08:20:32;;;;;;;;;;;;;;;9.68;45.95;98716.31;5011735;28;20455;-78
2021/10/23 08:22:59;;;;;;;;;;;;;;;9.70;46.19;98729.25;5011799;28;19921;-76
2021/10/23 08:25:24;;;;;;;;;;;;;;;9.72;46.75;98733.53;5012573;28;20373;-80
2021/10/23 08:27:50;;;;;;;;;;;;;;;9.75;46.39;98724.81;5012332;28;19967;-76
2021/10/23 08:30:17;;;;;;;;;;;;;;;9.89;46.30;98725.34;5012002;28;19929;-75
2021/10/23 08:32:43;;;;;;;;;;;;;;;10.10;46.58;98725.72;5011880;28;20384;-75
2021/10/23 08:35:12;;;;;;;;;;;;;;;10.21;46.35;98734.13;5012929;28;19926;-77
2021/10/23 08:37:38;;;;;;;;;;;;;;;10.19;46.27;98733.31;5013490;28;19921;-77
2021/10/23 08:40:05;;;;;;;;;;;;;;;10.32;46.23;98730.41;5020883;28;20063;-75
2021/10/23 08:42:31;;;;;;;;;;;;;;;10.50;46.15;98742.13;5012073;28;19937;-77
2021/10/23 08:44:58;;;;;;;;;;;;;;;10.70;45.97;98739.03;5013378;28;19929;-76
2021/10/23 08:47:27;;;;;;;;;;;;;;;10.61;45.75;98740.09;5011960;28;19921;-76
2021/10/23 08:49:58;;;;;;;;;;;;;;;10.45;45.76;98739.66;5012082;28;20079;-75
2021/10/23 08:52:24;;;;;;;;;;;;;;;10.42;46.06;98738.88;5012741;28;19976;-78
2021/10/23 08:54:56;;;;;;;;;;;;;;;10.52;46.14;98742.94;5013021;28;19921;-78
2021/10/23 08:57:28;;;;;;;;;;;;;;;10.63;46.10;98753.09;5015930;28;19958;-78
2021/10/23 08:59:58;;;;;;;;;;;;;;;10.73;46.34;98741.53;4983820;28;19922;-80
2021/10/23 09:02:30;;;;;;;;;;;;;;;10.72;45.78;98745.03;5018634;28;19922;-78
2021/10/23 09:04:58;;;;;;;;;;;;;;;10.57;46.31;98733.28;5013995;28;19921;-76
2021/10/23 09:07:26;;;;;;;;;;;;;;;10.64;46.41;98736.59;4983801;28;19979;-74
2021/10/23 09:09:53;;;;;;;;;;;;;;;10.70;46.83;98739.88;4978757;28;19933;-77
2021/10/23 09:12:22;;;;;;;;;;;;;;;10.73;46.53;98751.94;4995882;28;19921;-77
2021/10/23 09:15:16;;;;;;;;;;;;;;;10.77;46.56;98742.31;4995983;28;19931;-80
2021/10/23 09:17:49;;;;;;;;;;;;;;;10.67;46.66;98697.47;5021224;28;20309;-76
2021/10/23 09:20:15;;;;;;;;;;;;;;;11.92;46.53;98732.06;5016560;28;20016;-75
2021/10/23 09:22:42;;;;;;;;;;;;;;;13.08;46.49;98722.13;5016991;28;20063;-78
2021/10/23 09:25:14;;;;;;;;;;;;;;;12.96;43.75;98737.31;5015088;28;20012;-78
2021/10/23 09:27:54;;;;;;;;;;;;;;;12.42;44.58;98733.13;5012901;28;20115;-78
2021/10/23 09:30:22;;;;;;;;;;;;;;;11.86;45.02;98735.72;5011575;28;19921;-79
2021/10/23 09:32:55;;;;;;;;;;;;;;;11.34;45.52;98732.06;5012272;28;19933;-78
2021/10/23 09:35:22;;;;;;;;;;;;;;;10.99;45.98;98739.97;5012626;28;19971;-78
2021/10/23 09:37:49;;;;;;;;;;;;;;;10.87;46.43;98735.13;5013583;28;19921;-73
2021/10/23 09:40:20;;;;;;;;;;;;;;;11.23;46.81;98742.78;5014876;28;19976;-77
2021/10/23 09:42:46;;;;;;;;;;;;;;;11.81;46.83;98715.88;5016401;28;19928;-78
2021/10/23 09:45:12;;;;;;;;;;;;;;;13.14;46.64;98724.50;5013874;28;19925;-78
2021/10/23 09:47:44;;;;;;;;;;;;;;;14.93;44.33;98725.34;5013281;28;19921;-77
2021/10/23 09:50:14;;;;;;;;;;;;;;;16.22;41.60;98705.38;5013682;28;20039;-78
2021/10/23 09:52:54;;;;;;;;;;;;;;;16.05;39.64;98716.72;5011803;28;19921;-75
2021/10/23 09:55:22;;;;;;;;;;;;;;;15.89;39.90;98706.13;5012231;28;19921;-77
2021/10/23 09:58:06;;;;;;;;;;;;;;;15.14;40.25;98723.53;5013902;28;20397;-75
2021/10/23 10:00:32;;;;;;;;;;;;;;;14.39;40.80;98721.47;5022030;28;19944;-72
2021/10/23 10:02:58;;;;;;;;;;;;;;;13.94;41.60;98727.66;5020056;28;19921;-74
2021/10/23 10:05:24;;;;;;;;;;;;;;;13.38;42.10;98730.59;5012641;28;20404;-76
2021/10/23 10:07:50;;;;;;;;;;;;;;;12.79;42.37;98724.88;4978303;28;19921;-78
2021/10/23 10:10:15;;;;;;;;;;;;;;;12.53;42.83;98733.59;5011176;28;19921;-79
2021/10/23 10:12:42;;;;;;;;;;;;;;;12.54;43.02;98734.47;4994513;28;19926;-75
2021/10/23 10:15:08;;;;;;;;;;;;;;;12.49;43.40;98737.22;5010499;28;19921;-73
2021/10/23 10:17:37;;;;;;;;;;;;;;;12.54;43.12;98732.69;5010948;28;19921;-78
2021/10/23 10:20:03;;;;;;;;;;;;;;;12.72;43.00;98735.56;5011098;28;20365;-77
2021/10/23 10:22:29;;;;;;;;;;;;;;;12.82;42.78;98721.31;5010559;28;19939;-77
2021/10/23 10:25:14;;;;;;;;;;;;;;;12.76;42.86;98721.50;4993590;28;19925;-76
2021/10/23 10:27:44;;;;;;;;;;;;;;;12.80;42.97;98720.50;5010559;28;19944;-79
2021/10/23 10:30:40;;;;;;;;;;;;;;;12.67;42.54;98724.47;5011904;28;19925;-74
2021/10/23 10:33:42;;;;;;;;;;;;;;;12.35;43.25;98750.75;5014953;28;20352;-75
2021/10/23 10:39:25;;;;;;;;;;;;;;;11.97;43.42;98750.16;5001331;28;20270;-75
2021/10/23 10:45:17;;;;;;;;;;;;;;;11.54;43.69;98761.00;4993201;28;19929;-75
2021/10/23 10:48:09;;;;;;;;;;;;;;;11.21;44.11;98766.28;5009738;28;20000;-73
2021/10/23 10:50:35;;;;;;;;;;;;;;;11.14;44.60;98772.53;5007430;28;20022;-74
2021/10/23 10:53:16;;;;;;;;;;;;;;;11.14;44.37;98775.16;5011034;28;19948;-76
2021/10/23 10:55:43;;;;;;;;;;;;;;;11.11;44.25;98778.72;5009748;28;19922;-78
2021/10/23 10:58:10;;;;;;;;;;;;;;;10.93;44.25;98774.84;5010965;28;19993;-74
2021/10/23 11:00:45;;;;;;;;;;;;;;;10.77;44.52;98776.97;5009973;28;20059;-76
2021/10/23 11:03:29;;;;;;;;;;;;;;;10.68;44.61;98782.44;5010125;28;19960;-77
2021/10/23 11:05:54;;;;;;;;;;;;;;;10.60;44.98;98776.56;5010655;28;19976;-75
2021/10/23 11:08:20;;;;;;;;;;;;;;;10.58;45.22;98775.75;5011426;28;19925;-78
2021/10/23 11:10:49;;;;;;;;;;;;;;;10.59;44.96;98780.06;4977511;28;19921;-75
2021/10/23 11:13:26;;;;;;;;;;;;;;;10.51;45.21;98781.09;5010700;28;20309;-76
2021/10/23 11:15:52;;;;;;;;;;;;;;;10.44;45.59;98779.56;5012397;28;19925;-73
2021/10/23 11:18:17;;;;;;;;;;;;;;;10.32;45.60;98779.81;5012729;28;20321;-80
2021/10/23 11:20:43;;;;;;;;;;;;;;;10.24;45.83;98793.00;5010069;28;20376;-78
2021/10/23 11:23:12;;;;;;;;;;;;;;;10.27;45.78;98794.66;4978893;28;19922;-76
2021/10/23 11:25:38;;;;;;;;;;;;;;;10.20;45.57;98805.22;5018257;28;19932;-78
2021/10/23 11:28:09;;;;;;;;;;;;;;;10.07;45.69;98795.97;5017026;28;20032;-76
2021/10/23 11:30:40;;;;;;;;;;;;;;;9.92;46.05;98798.03;5014961;28;20016;-76
2021/10/23 11:33:06;;;;;;;;;;;;;;;9.84;46.23;98805.13;5009535;28;19922;-75
2021/10/23 11:35:38;;;;;;;;;;;;;;;9.76;46.11;98818.31;5010518;28;19925;-76
2021/10/23 11:38:10;;;;;;;;;;;;;;;9.71;46.45;98812.34;5010903;28;19928;-76
2021/10/23 11:40:38;;;;;;;;;;;;;;;9.68;46.32;98821.94;5012033;28;19929;-75
2021/10/23 11:43:04;;;;;;;;;;;;;;;9.65;47.04;98821.13;5010122;28;19968;-77
2021/10/23 11:45:30;;;;;;;;;;;;;;;9.69;46.58;98805.47;5014685;28;19961;-75
2021/10/23 11:47:57;;;;;;;;;;;;;;;9.65;46.69;98813.34;5013352;28;19952;-72
2021/10/23 11:50:25;;;;;;;;;;;;;;;9.56;47.18;98815.28;5013232;28;19921;-75
2021/10/23 11:52:53;;;;;;;;;;;;;;;9.48;47.24;98816.31;5018980;28;19925;-72
2021/10/23 11:55:27;;;;;;;;;;;;;;;9.42;46.99;98816.41;5022269;28;20019;-75
2021/10/23 11:57:57;;;;;;;;;;;;;;;9.32;47.42;98812.28;5022116;28;19929;-75
2021/10/23 12:00:23;;;;;;;;;;;;;;;9.22;47.41;98819.38;5020703;28;19943;-73
2021/10/23 12:02:55;;;;;;;;;;;;;;;9.12;47.71;98804.88;5017987;28;20365;-75
2021/10/23 12:05:21;;;;;;;;;;;;;;;9.02;47.94;98825.81;5018578;28;19922;-74
2021/10/23 12:07:47;;;;;;;;;;;;;;;8.96;47.82;98817.28;5026613;28;19921;-74
2021/10/23 12:10:12;;;;;;;;;;;;;;;8.85;48.04;98823.50;4994498;28;19921;-75
2021/10/23 12:12:39;;;;;;;;;;;;;;;8.82;48.13;98818.41;5031625;28;19944;-74
2021/10/23 12:15:17;;;;;;;;;;;;;;;8.80;48.32;98817.56;5031354;28;19945;-76
2021/10/23 12:17:43;;;;;;;;;;;;;;;8.72;48.27;98817.66;5034875;28;19914;-77
2021/10/23 12:20:15;;;;;;;;;;;;;;;8.70;48.50;98821.19;5033564;28;19921;-74
2021/10/23 12:22:41;;;;;;;;;;;;;;;8.71;48.58;98823.75;5030156;28;19921;-76
2021/10/23 12:25:13;;;;;;;;;;;;;;;8.74;48.82;98823.69;5031181;28;19932;-75
2021/10/23 12:27:38;;;;;;;;;;;;;;;8.76;48.80;98822.81;5024338;28;19968;-74
2021/10/23 12:30:05;;;;;;;;;;;;;;;8.74;48.57;98821.09;5014990;28;19999;-75
2021/10/23 12:32:41;;;;;;;;;;;;;;;8.76;48.67;98834.06;5014622;28;19962;-75
2021/10/23 12:35:23;;;;;;;;;;;;;;;8.78;48.80;98841.78;5013733;28;19945;-76
2021/10/23 12:37:58;;;;;;;;;;;;;;;8.78;48.98;98841.78;5014842;28;20016;-74
2021/10/23 12:40:32;;;;;;;;;;;;;;;8.80;48.98;98840.03;5012718;28;19921;-76
2021/10/23 12:42:59;;;;;;;;;;;;;;;8.87;48.96;98841.66;5013848;28;20004;-71
2021/10/23 12:45:26;;;;;;;;;;;;;;;8.84;49.11;98846.88;5013618;28;19922;-76
2021/10/23 12:47:52;;;;;;;;;;;;;;;8.81;48.80;98854.72;5013999;28;20403;-73
2021/10/23 12:50:22;;;;;;;;;;;;;;;8.68;49.10;98872.22;5016012;28;19927;-74
2021/10/23 12:52:49;;;;;;;;;;;;;;;8.53;49.68;98868.13;5013925;28;19921;-73
2021/10/23 12:55:16;;;;;;;;;;;;;;;8.35;50.28;98875.28;5011530;28;19921;-76
2021/10/23 12:57:41;;;;;;;;;;;;;;;8.14;50.81;98876.44;5014113;28;19926;-74
2021/10/23 13:00:07;;;;;;;;;;;;;;;7.92;51.45;98876.72;5017749;28;20099;-75
2021/10/23 13:02:35;;;;;;;;;;;;;;;7.76;52.00;98867.41;5014959;28;19925;-74
2021/10/23 13:05:01;;;;;;;;;;;;;;;7.66;52.63;98879.63;4996949;28;20349;-76